• Join FlightAware (Why Join?)
  • Login
  • US Flag 
03:38AM EDT


 

Airport Tracker/Info


-or-


 

Live Flight TrackerFlight Track Log ✈ CES2179 ✈ 22-Jul-2014 ✈ ZSPD / PVG - ZSYT / YNT

Flight Track Log - Related Links

Times and Time Zones

All times are in EDT time to prevent confusion due to time zone crossing. See the CES2179 flight status page for this flight to view local times or setup timezone preferences in your user account.

Time Position Orientation Groundspeed Altitude Reporting Facility
EDT Latitude Longitude Course Direction KTS MPH feet Rate Location/Type
10:35PM 31.1319 121.8217 162° South 151 174 800  Level FlightAware ADS-B (ZSSL)
10:35PM 31.1216 121.8265 150° Southeast 159 183 1,400 2,280 Climbing FlightAware ADS-B (ZSSL)
10:35PM 31.1186 121.8293 141° Southeast 159 183 1,600 2,400 Climbing FlightAware ADS-B (ZSSL)
10:35PM 31.1165 121.8317 134° Southeast 159 183 1,800 2,520 Climbing FlightAware ADS-B (ZSSL)
10:35PM 31.1109 121.8375 142° Southeast 158 182 2,200 2,100 Climbing FlightAware ADS-B (ZSSL)
10:35PM 31.1075 121.8400 148° Southeast 159 183 2,300 2,100 Climbing FlightAware ADS-B (ZSSL)
10:36PM 31.0979 121.8458 153° Southeast 158 182 2,900 1,980 Climbing FlightAware ADS-B (ZSSL)
10:36PM 31.0877 121.8521 151° Southeast 162 186 3,300 1,200 Climbing FlightAware ADS-B (ZSSL)
10:36PM 31.0776 121.8589 148° Southeast 182 209 3,500 780 Climbing FlightAware ADS-B (ZSSL)
10:36PM 31.0663 121.8672 147° Southeast 202 232 3,700 600 Climbing FlightAware ADS-B (ZSSL)
10:37PM 31.0534 121.8767 147° Southeast 227 261 3,800 780 Climbing FlightAware ADS-B (ZSSL)
10:37PM 31.0394 121.8874 146° Southeast 249 287 4,100 1,320 Climbing FlightAware ADS-B (ZSSL)
10:37PM 31.0244 121.8989 146° Southeast 268 308 4,500 1,920 Climbing FlightAware ADS-B (ZSSL)
10:37PM 31.0079 121.9115 146° Southeast 274 315 5,100 2,460 Climbing FlightAware ADS-B (ZSSL)
10:38PM 30.9923 121.9234 146° Southeast 277 319 5,700 1,800 Climbing FlightAware ADS-B (ZSSL)
10:38PM 30.9758 121.9359 146° Southeast 276 318 6,000 960 Climbing FlightAware ADS-B (ZSSL)
10:38PM 30.9667 121.9442 137° Southeast 276 318 6,100 420 Climbing FlightAware ADS-B (ZSSL)
10:38PM 30.9618 121.9507 129° Southeast 275 316 6,100  Level FlightAware ADS-B (ZSSL)
10:38PM 30.9588 121.9561 121° Southeast 274 315 6,100  Level FlightAware ADS-B (ZSSL)
10:38PM 30.9556 121.9644 110° East 273 314 6,100  Level FlightAware ADS-B (ZSSL)
10:38PM 30.9544 121.9693 103° East 273 314 6,100  Level FlightAware ADS-B (ZSSL)
10:39PM 30.9536 121.9775 93° East 272 313 6,100 600 Level FlightAware ADS-B (ZSSL)
10:39PM 30.9539 121.9845 86° East 272 313 6,200 1,800 Climbing FlightAware ADS-B (ZSSL)
10:39PM 30.9579 122.0061 77° East 274 315 6,700 1,980 Climbing FlightAware ADS-B (ZSSL)
10:39PM 30.9627 122.0271 68° East 279 321 7,200 2,100 Climbing FlightAware ADS-B (ZSSL)
10:39PM 30.9663 122.0355 61° Northeast 281 323 7,400 2,160 Climbing FlightAware ADS-B (ZSSL)
10:39PM 30.9695 122.0407 53° Northeast 283 326 7,600 2,160 Climbing FlightAware ADS-B (ZSSL)
10:39PM 30.9744 122.0467 45° Northeast 284 327 7,800 2,640 Climbing FlightAware ADS-B (ZSSL)
10:39PM 30.9799 122.0514 34° Northeast 285 328 8,000 3,000 Climbing FlightAware ADS-B (ZSSL)
10:40PM 30.9846 122.0543 24° Northeast 285 328 8,300 2,760 Climbing FlightAware ADS-B (ZSSL)
10:40PM 30.9982 122.0588 10° North 286 329 8,700 2,520 Climbing FlightAware ADS-B (ZSSL)
10:40PM 31.0049 122.0591 North 288 331 8,900 2,400 Climbing FlightAware ADS-B (ZSSL)
10:40PM 31.0118 122.0585 356° North 289 333 9,100 1,980 Climbing FlightAware ADS-B (ZSSL)
10:40PM 31.0315 122.0561 354° North 293 337 9,600 1,800 Climbing FlightAware ADS-B (ZSSL)
10:41PM 31.0806 122.0496 354° North 312 359 10,600 1,380 Climbing FlightAware ADS-B (ZSSL)
10:41PM 31.1266 122.0435 354° North 344 396 11,100 900 Climbing FlightAware ADS-B (ZSSL)
10:42PM 31.1750 122.0371 354° North 371 427 11,500 1,260 Climbing FlightAware ADS-B (ZSSL)
10:42PM 31.2264 122.0303 354° North 379 436 12,400 1,920 Climbing FlightAware ADS-B (ZSSL)
10:43PM 31.2800 122.0231 354° North 381 438 13,500 2,160 Climbing FlightAware ADS-B (ZSSL)
10:43PM 31.3327 122.0161 354° North 379 436 14,600 2,520 Climbing FlightAware ADS-B (ZSSL)
10:44PM 31.3839 122.0092 354° North 367 422 16,000 2,640 Climbing FlightAware ADS-B (ZSSL)
10:44PM 31.4163 122.0079 North 360 414 16,800 2,460 Climbing FlightAware ADS-B (ZSSL)
10:44PM 31.4342 122.0131 19° North 354 407 17,300 2,400 Climbing FlightAware ADS-B (ZSSL)
10:44PM 31.4496 122.0228 31° Northeast 354 407 17,600 1,260 Climbing FlightAware ADS-B (ZSSL)
10:45PM 31.4603 122.0338 46° Northeast 358 412 17,700 600 Climbing FlightAware ADS-B (ZSSL)
10:45PM 31.4712 122.0519 58° Northeast 368 423 17,800  Climbing FlightAware ADS-B (ZSSL)
10:45PM 31.5016 122.1149 60° Northeast 398 458 17,700 -120 Descending FlightAware ADS-B (ZSSL)
10:46PM 31.5291 122.1717 60° Northeast 402 463 17,700 180 Level FlightAware ADS-B (ZSSL)
10:46PM 31.5612 122.2379 60° Northeast 402 463 17,900 600 Climbing FlightAware ADS-B (ZSSL)
10:47PM 31.5891 122.2944 57° Northeast 406 467 18,400 780 Climbing FlightAware ADS-B (ZSSL)
10:47PM 31.6329 122.3373 48° Northeast 408 470 18,700 240 Climbing FlightAware ADS-B (ZSSL)
11:21PM 35.4298 120.6536 11° North 427 491 27,700 240 Climbing FlightAware ADS-B (ZSQD / TAO)
11:21PM 35.4882 120.6683 11° North 424 488 27,200 -900 Descending FlightAware ADS-B (ZSQD / TAO)
11:22PM 35.5471 120.6832 11° North 419 482 26,800 -480 Descending FlightAware ADS-B (ZSQD / TAO)
11:22PM 35.6418 120.7071 11° North 421 484 26,600 -180 Descending FlightAware ADS-B (ZSQD / TAO)
11:23PM 35.6967 120.7212 11° North 420 483 26,600  Level FlightAware ADS-B (ZSQD / TAO)
11:23PM 35.7555 120.7361 11° North 421 484 26,600  Level FlightAware ADS-B (ZSQD / TAO)
11:24PM 35.8124 120.7506 11° North 420 483 26,600  Level FlightAware ADS-B (ZSQD / TAO)
11:24PM 35.8688 120.7651 11° North 420 483 26,600  Level FlightAware ADS-B (ZSQD / TAO)
11:25PM 35.9264 120.7798 11° North 419 482 26,600  Level FlightAware ADS-B (ZSQD / TAO)
11:26PM 36.0185 120.8034 11° North 392 451 26,600  Level FlightAware ADS-B (ZSQD / TAO)
11:26PM 36.0718 120.8171 11° North 389 448 26,600  Level FlightAware ADS-B (ZSQD / TAO)
11:27PM 36.1248 120.8307 11° North 392 451 26,600  Level FlightAware ADS-B (ZSQD / TAO)
11:27PM 36.1794 120.8447 11° North 394 453 26,600 -300 Level FlightAware ADS-B (ZSQD / TAO)
11:28PM 36.2307 120.8580 11° North 391 450 26,300 -1,200 Descending FlightAware ADS-B (ZSQD / TAO)
11:28PM 36.2845 120.8719 11° North 388 447 25,400 -1,680 Descending FlightAware ADS-B (ZSQD / TAO)
11:29PM 36.3376 120.8857 11° North 382 440 24,600 -1,680 Descending FlightAware ADS-B (ZSQD / TAO)
11:29PM 36.3889 120.8989 11° North 376 433 23,700 -1,620 Descending FlightAware ADS-B (ZSQD / TAO)
11:30PM 36.4390 120.9119 11° North 367 422 23,000 -1,680 Descending FlightAware ADS-B (ZSQD / TAO)
11:30PM 36.4884 120.9247 11° North 365 420 22,100 -1,740 Descending FlightAware ADS-B (ZSQD / TAO)
11:31PM 36.5383 120.9377 12° North 361 415 21,300 -2,100 Descending FlightAware ADS-B (ZSQD / TAO)
11:31PM 36.5881 120.9507 11° North 371 427 20,000 -1,740 Descending FlightAware ADS-B (ZSQD / TAO)
11:32PM 36.6374 120.9634 12° North 355 409 19,600 -1,200 Descending FlightAware ADS-B (ZSQD / TAO)
11:32PM 36.6853 120.9760 11° North 348 400 18,800 -1,620 Descending FlightAware ADS-B (ZSQD / TAO)
11:33PM 36.7323 120.9883 12° North 345 397 18,000 -1,440 Descending FlightAware ADS-B (ZSQD / TAO)
11:33PM 36.7785 121.0004 11° North 338 389 17,400 -1,320 Descending FlightAware ADS-B (ZSQD / TAO)
11:34PM 36.8234 121.0122 11° North 333 383 16,700 -1,980 Descending FlightAware ADS-B (ZSQD / TAO)
11:34PM 36.8692 121.0241 11° North 346 398 15,400 -2,520 Descending FlightAware ADS-B (ZSQD / TAO)
11:35PM 36.9147 121.0360 11° North 353 406 14,300 -1,980 Descending FlightAware ADS-B (ZSQD / TAO)
11:35PM 36.9664 121.0497 11° North 348 400 13,500 -1,440 Descending FlightAware ADS-B (ZSQD / TAO)
11:36PM 37.0121 121.0618 11° North 338 389 12,800 -600 Descending FlightAware ADS-B (ZSQD / TAO)
11:36PM 37.0700 121.0772 11° North 299 344 12,800  Level FlightAware ADS-B (ZSQD / TAO)
11:37PM 37.1076 121.0870 11° North 285 328 12,800  Level FlightAware ADS-B (ZSQD / TAO)
11:37PM 37.1473 121.0975 11° North 282 325 12,800  Level FlightAware ADS-B (ZSQD / TAO)
11:38PM 37.1856 121.1076 11° North 272 313 12,800  Level FlightAware ADS-B (ZSQD / TAO)
11:38PM 37.2225 121.1173 11° North 271 312 12,800 -120 Level FlightAware ADS-B (ZSQD / TAO)
11:39PM 37.2578 121.1267 12° North 268 308 12,700 -1,380 Descending FlightAware ADS-B (ZSQD / TAO)
11:39PM 37.2964 121.1369 12° North 288 331 11,500 -2,400 Descending FlightAware ADS-B (ZSQD / TAO)
11:40PM 37.3369 121.1476 11° North 304 350 10,300 -2,160 Descending FlightAware ADS-B (ZSQD / TAO)
11:40PM 37.3569 121.1530 12° North 305 351 9,900 -1,740 Descending FlightAware ADS-B (ZSQD / TAO)
11:40PM 37.3852 121.1605 12° North 304 350 9,300 -1,740 Descending FlightAware ADS-B (ZSQD / TAO)
11:41PM 37.4031 121.1653 11° North 298 343 8,900 -2,100 Descending FlightAware ADS-B (ZSQD / TAO)
11:41PM 37.4260 121.1714 15° North 298 343 8,100 -1,440 Descending FlightAware ADS-B (ZSQD / TAO)
11:42PM 37.4992 121.2919 60° Northeast 280 322 6,400 -1,200 Descending FlightAware ADS-B (ZSQD / TAO)
11:43PM 37.5025 121.2992 61° Northeast 276 318 6,300 -1,020 Descending FlightAware ADS-B (ZSQD / TAO)
11:45PM 37.4017 121.3717 150° Southeast  Level Estimated
11:46PM 37.4017 121.3717 North  Level Estimated
11:47PM 37.4017 121.3717 North  Level Estimated
11:48PM 37.4017 121.3717 North  Level Estimated
11:49PM 37.4017 121.3717 North  Level Estimated
11:50PM 37.4017 121.3717 North  Level Estimated
11:51PM 37.4017 121.3717 North  Level Estimated
11:52PM 37.4017 121.3717 North  Level Estimated
11:53PM 37.4017 121.3717 North  Level Estimated
11:54PM 37.4017 121.3717 North  Level Estimated
11:55PM 37.4017 121.3717 North  Level Estimated
11:56PM 37.4017 121.3717 North  Level Estimated
11:57PM 37.4017 121.3717 North  Level Estimated